Time;durP1;ratioP1;P1;durP2;ratioP2;P2;SDS_P1;SDS_P2;PMS_P1;PMS_P2;Temp;Humidity;BMP_temperature;BMP_pressure;BME280_temperature;BME280_humidity;BME280_pressure;Samples;Min_cycle;Max_cycle;Signal;HPM_P1;HPM_P2
2021/04/08 00:00:23;;;;;;;18.15;10.38;;;;;;;3.71;66.49;100865.03;5071737;28;20048;-61
2021/04/08 00:02:51;;;;;;;19.58;11.23;;;;;;;3.68;66.62;100866.41;5082368;28;20052;-61
2021/04/08 00:05:19;;;;;;;17.23;8.65;;;;;;;3.59;66.28;100862.41;5091807;28;20071;-61
2021/04/08 00:07:46;;;;;;;16.88;9.40;;;;;;;3.57;66.20;100864.59;5095400;28;20054;-61
2021/04/08 00:10:14;;;;;;;14.73;9.45;;;;;;;3.46;67.23;100869.16;5095577;28;20063;-60
2021/04/08 00:12:41;;;;;;;16.48;9.43;;;;;;;3.46;67.38;100866.41;5095081;28;20055;-59
2021/04/08 00:15:10;;;;;;;17.92;9.20;;;;;;;3.49;67.05;100873.34;5095724;28;20048;-61
2021/04/08 00:17:37;;;;;;;15.50;9.38;;;;;;;3.47;67.09;100872.75;5095231;28;20481;-61
2021/04/08 00:20:09;;;;;;;20.85;9.55;;;;;;;3.44;67.18;100869.44;5094644;28;20103;-61
2021/04/08 00:22:36;;;;;;;19.70;9.77;;;;;;;3.48;67.74;100885.44;5095249;28;20055;-61
2021/04/08 00:25:03;;;;;;;17.17;9.82;;;;;;;3.44;67.42;100869.44;5095030;28;20052;-61
2021/04/08 00:27:30;;;;;;;16.20;8.65;;;;;;;3.45;67.08;100875.78;5095382;28;20056;-61
2021/04/08 00:29:57;;;;;;;15.15;9.02;;;;;;;3.39;67.54;100882.31;5095661;28;20483;-61
2021/04/08 00:32:24;;;;;;;15.15;9.45;;;;;;;3.36;67.93;100886.41;5095086;28;20390;-61
2021/04/08 00:34:51;;;;;;;17.10;9.40;;;;;;;3.42;68.18;100895.53;5095291;28;20484;-60
2021/04/08 00:37:19;;;;;;;21.63;9.80;;;;;;;3.43;67.88;100883.44;5095755;28;20051;-61
2021/04/08 00:39:46;;;;;;;18.10;8.82;;;;;;;3.49;67.67;100890.69;5094297;28;20055;-61
2021/04/08 00:42:13;;;;;;;17.25;9.00;;;;;;;3.54;68.08;100887.16;5095035;28;20497;-61
2021/04/08 00:44:40;;;;;;;16.98;8.68;;;;;;;3.57;67.66;100893.00;5095094;28;20058;-61
2021/04/08 00:47:07;;;;;;;15.30;9.10;;;;;;;3.58;67.67;100893.81;5095395;28;20389;-61
2021/04/08 00:49:34;;;;;;;17.85;8.32;;;;;;;3.64;67.30;100901.06;5095097;28;20051;-60
2021/04/08 00:52:03;;;;;;;14.50;8.25;;;;;;;3.64;67.29;100896.38;5094761;28;20052;-61
2021/04/08 00:54:31;;;;;;;24.45;9.05;;;;;;;3.72;66.73;100897.03;5095351;28;20489;-61
2021/04/08 00:56:58;;;;;;;18.33;9.13;;;;;;;3.73;66.70;100898.66;5094682;28;20404;-61
2021/04/08 00:59:25;;;;;;;22.05;9.27;;;;;;;3.76;66.32;100895.38;5095009;28;20485;-61
2021/04/08 01:01:52;;;;;;;14.52;8.68;;;;;;;3.74;66.92;100894.81;5091828;28;20053;-61
2021/04/08 01:04:19;;;;;;;17.17;9.25;;;;;;;3.64;67.37;100901.88;5074297;28;20059;-61
2021/04/08 01:06:46;;;;;;;19.13;9.23;;;;;;;3.60;67.36;100895.22;5071671;28;20055;-61
2021/04/08 01:09:14;;;;;;;20.63;9.50;;;;;;;3.55;67.14;100900.69;5074520;28;20044;-61
2021/04/08 01:11:42;;;;;;;18.92;9.48;;;;;;;3.43;67.94;100905.47;5066204;28;20116;-60
2021/04/08 01:14:10;;;;;;;19.50;9.75;;;;;;;3.38;67.47;100897.13;5074250;28;20052;-61
2021/04/08 01:16:44;;;;;;;19.58;10.48;;;;;;;3.33;67.52;100905.34;5073917;28;20052;-61
2021/04/08 01:19:35;;;;;;;19.60;10.93;;;;;;;3.20;67.86;100896.38;5073219;28;20048;-61
2021/04/08 01:22:14;;;;;;;21.67;10.73;;;;;;;3.15;68.69;100904.56;5065403;28;20052;-61
2021/04/08 01:25:12;;;;;;;24.05;12.02;;;;;;;3.08;68.96;100911.34;5070756;28;20485;-60
2021/04/08 01:28:09;;;;;;;28.90;11.70;;;;;;;2.99;68.91;100911.78;5073977;28;20608;-61
2021/04/08 01:30:43;;;;;;;19.95;11.25;;;;;;;2.96;69.56;100915.03;5072526;28;20053;-61
2021/04/08 01:33:17;;;;;;;20.25;10.30;;;;;;;2.95;68.90;100921.63;5054445;28;20059;-61
2021/04/08 01:35:47;;;;;;;25.55;10.93;;;;;;;2.92;69.35;100915.78;5053935;28;20490;-61
2021/04/08 01:38:20;;;;;;;23.00;11.65;;;;;;;2.94;69.54;100924.63;5053496;28;20045;-61
2021/04/08 01:40:48;;;;;;;21.27;10.73;;;;;;;2.98;69.11;100917.53;5071396;28;20040;-61
2021/04/08 01:43:21;;;;;;;23.88;11.52;;;;;;;3.00;69.74;100923.59;5073393;28;20369;-61
2021/04/08 01:45:50;;;;;;;22.92;11.38;;;;;;;3.02;69.25;100921.44;5073984;28;20052;-59
2021/04/08 01:48:20;;;;;;;19.85;10.63;;;;;;;3.00;69.53;100929.97;5073595;28;20378;-61
2021/04/08 01:50:49;;;;;;;18.88;11.88;;;;;;;3.05;69.74;100930.03;5073415;28;20049;-61
2021/04/08 01:53:19;;;;;;;20.02;11.00;;;;;;;3.11;69.80;100935.59;5073213;28;20059;-61
2021/04/08 01:55:51;;;;;;;21.70;11.45;;;;;;;3.14;69.54;100930.41;5072462;28;20063;-61
2021/04/08 01:58:21;;;;;;;18.25;11.10;;;;;;;3.14;69.11;100929.59;5073449;28;20505;-59
2021/04/08 02:00:50;;;;;;;20.98;11.38;;;;;;;3.19;69.16;100937.91;5072938;28;20056;-61
2021/04/08 02:03:18;;;;;;;19.65;11.95;;;;;;;3.20;69.01;100931.34;5088418;28;20059;-61
2021/04/08 02:05:45;;;;;;;16.70;10.65;;;;;;;3.21;68.29;100928.34;5090674;28;20393;-60
2021/04/08 02:08:14;;;;;;;18.35;11.30;;;;;;;3.22;68.34;100934.66;5092949;28;20048;-61
2021/04/08 02:10:42;;;;;;;18.10;10.77;;;;;;;3.22;68.12;100935.50;5092833;28;20048;-60
2021/04/08 02:13:12;;;;;;;16.42;10.23;;;;;;;3.21;68.24;100933.84;5093001;28;20078;-61
2021/04/08 02:15:41;;;;;;;19.15;10.93;;;;;;;3.13;68.43;100928.78;5093792;28;20055;-61
2021/04/08 02:18:15;;;;;;;20.65;10.60;;;;;;;3.12;68.47;100932.59;5093554;28;20052;-61
2021/04/08 02:20:44;;;;;;;20.23;10.50;;;;;;;3.18;68.52;100939.00;5093030;28;20055;-61
2021/04/08 02:23:17;;;;;;;19.77;10.20;;;;;;;3.17;68.27;100932.69;5093278;28;20396;-60
2021/04/08 02:25:45;;;;;;;20.27;10.55;;;;;;;3.20;68.51;100932.16;5090729;28;20048;-61
2021/04/08 02:28:12;;;;;;;18.13;10.10;;;;;;;3.22;68.09;100927.22;5092698;28;20412;-61
2021/04/08 02:30:46;;;;;;;18.00;10.05;;;;;;;3.33;67.76;100930.94;5092882;28;20056;-61
2021/04/08 02:33:25;;;;;;;18.30;9.50;;;;;;;3.33;68.32;100932.88;5092480;28;20052;-61
2021/04/08 02:35:52;;;;;;;18.67;9.27;;;;;;;3.22;68.63;100926.41;5093010;28;20052;-61
2021/04/08 02:38:22;;;;;;;14.20;8.35;;;;;;;3.29;68.03;100923.47;5092483;28;20055;-61
2021/04/08 02:40:49;;;;;;;18.70;9.82;;;;;;;3.32;67.74;100936.72;5092931;28;20052;-61
2021/04/08 02:43:16;;;;;;;16.42;8.88;;;;;;;3.28;68.08;100930.06;5092688;28;20071;-61
2021/04/08 02:45:43;;;;;;;19.25;8.88;;;;;;;3.29;67.79;100937.22;5092360;28;20055;-61
2021/04/08 02:48:12;;;;;;;20.75;9.65;;;;;;;3.26;67.57;100938.56;5092500;28;20501;-61
2021/04/08 02:50:42;;;;;;;17.27;9.40;;;;;;;3.21;68.26;100935.72;5092816;28;20052;-61
2021/04/08 02:53:14;;;;;;;17.70;9.07;;;;;;;3.23;68.31;100939.06;5088746;28;20385;-61
2021/04/08 02:55:44;;;;;;;21.08;9.73;;;;;;;3.23;67.49;100945.44;5090212;28;20051;-61
2021/04/08 02:58:16;;;;;;;16.38;8.80;;;;;;;3.20;68.55;100937.66;5093270;28;20063;-60
2021/04/08 03:00:49;;;;;;;15.98;9.07;;;;;;;3.22;68.37;100949.25;5093095;28;20078;-61
2021/04/08 03:03:20;;;;;;;19.00;9.25;;;;;;;3.21;68.74;100941.25;5092258;28;20055;-61
2021/04/08 03:05:48;;;;;;;13.15;7.70;;;;;;;3.29;68.48;100942.72;5090415;28;20044;-61
2021/04/08 03:08:18;;;;;;;15.73;8.20;;;;;;;3.30;68.43;100938.88;5092461;28;20489;-61
2021/04/08 03:10:46;;;;;;;20.10;8.48;;;;;;;3.26;68.20;100946.84;5091834;28;20047;-60
2021/04/08 03:13:14;;;;;;;15.95;8.43;;;;;;;3.32;68.48;100947.72;5092964;28;20044;-61
2021/04/08 03:15:43;;;;;;;13.93;7.97;;;;;;;3.34;67.73;100946.41;5092975;28;20079;-61
2021/04/08 03:18:17;;;;;;;18.50;8.13;;;;;;;3.27;68.51;100956.75;5092683;28;20056;-61
2021/04/08 03:20:50;;;;;;;19.30;8.75;;;;;;;3.25;68.05;100951.53;5085143;28;20052;-60
2021/04/08 03:23:20;;;;;;;13.30;8.32;;;;;;;3.19;68.05;100952.53;5091816;28;20477;-61
2021/04/08 03:25:48;;;;;;;16.15;9.15;;;;;;;3.13;69.00;100955.44;5092318;28;20416;-61
2021/04/08 03:28:18;;;;;;;17.10;9.00;;;;;;;3.11;68.21;100952.97;5092268;28;20059;-61
2021/04/08 03:30:47;;;;;;;16.90;8.50;;;;;;;3.10;68.76;100961.47;5092523;28;20048;-61
2021/04/08 03:33:16;;;;;;;15.13;8.38;;;;;;;3.08;69.18;100958.94;5092377;28;20056;-61
2021/04/08 03:35:46;;;;;;;18.23;8.48;;;;;;;3.13;68.45;100959.03;5092364;28;20056;-61
2021/04/08 03:38:16;;;;;;;16.02;8.18;;;;;;;3.19;68.52;100959.94;5092516;28;20044;-61
2021/04/08 03:40:43;;;;;;;19.23;8.75;;;;;;;3.12;68.55;100962.88;5089656;28;20488;-62
2021/04/08 03:43:12;;;;;;;13.82;7.88;;;;;;;3.09;68.90;100952.38;5096048;28;20063;-61
2021/04/08 03:45:39;;;;;;;15.45;8.13;;;;;;;3.04;69.26;100966.03;5096408;28;20064;-61
2021/04/08 03:48:12;;;;;;;15.98;8.25;;;;;;;3.02;68.61;100955.31;5096309;28;20054;-64
2021/04/08 03:50:42;;;;;;;18.52;8.60;;;;;;;3.00;68.92;100962.13;5096758;28;20062;-61
2021/04/08 03:53:10;;;;;;;17.50;7.68;;;;;;;2.98;68.53;100967.03;5096030;28;20516;-61
2021/04/08 03:55:41;;;;;;;14.57;7.32;;;;;;;2.93;69.43;100970.56;5095416;28;20465;-61
2021/04/08 03:58:11;;;;;;;15.50;8.48;;;;;;;2.94;69.38;100974.13;5096499;28;20056;-61
2021/04/08 04:00:38;;;;;;;;;;;;;;;2.94;68.76;100974.13;5096348;28;20055;-61
2021/04/08 04:03:09;;;;;;;14.05;7.38;;;;;;;2.89;69.75;100988.66;5096172;28;19943;-61
2021/04/08 04:05:37;;;;;;;16.65;8.60;;;;;;;2.84;69.14;100980.34;5092748;28;20060;-61
2021/04/08 04:08:05;;;;;;;20.55;9.20;;;;;;;2.81;70.00;100978.06;5095303;28;20059;-60
2021/04/08 04:10:35;;;;;;;20.65;9.27;;;;;;;2.81;70.12;100984.44;5095398;28;20059;-61
2021/04/08 04:13:04;;;;;;;18.27;9.88;;;;;;;2.79;69.72;100981.09;5093224;28;20056;-60
2021/04/08 04:15:34;;;;;;;15.27;8.40;;;;;;;2.79;69.51;100975.59;5091887;28;20070;-61
2021/04/08 04:18:03;;;;;;;19.17;9.32;;;;;;;2.75;69.63;100988.16;5095359;28;20052;-61
2021/04/08 04:20:30;;;;;;;16.15;8.80;;;;;;;2.69;69.88;100983.66;5095239;28;20055;-61
2021/04/08 04:23:00;;;;;;;18.77;9.50;;;;;;;2.62;70.06;100988.47;5095166;28;20055;-61
2021/04/08 04:25:27;;;;;;;18.98;9.00;;;;;;;2.64;69.91;100989.06;5094685;28;20335;-60
2021/04/08 04:27:54;;;;;;;17.27;8.23;;;;;;;2.59;70.61;100995.31;5095034;28;20056;-61
2021/04/08 04:30:23;;;;;;;19.63;7.50;;;;;;;2.63;70.73;100996.50;5095282;28;20059;-61
2021/04/08 04:32:53;;;;;;;16.55;7.78;;;;;;;2.63;70.64;100988.25;5095161;28;20059;-61
2021/04/08 04:35:20;;;;;;;15.07;7.07;;;;;;;2.66;70.54;100989.66;5095319;28;20056;-61
2021/04/08 04:37:47;;;;;;;14.50;7.25;;;;;;;2.71;70.26;100992.50;5094951;28;20063;-61
2021/04/08 04:40:15;;;;;;;15.07;7.47;;;;;;;2.73;70.22;100993.09;5070566;28;20472;-60
2021/04/08 04:42:43;;;;;;;14.18;7.40;;;;;;;2.72;70.01;100988.66;5074543;28;20489;-60
2021/04/08 04:45:12;;;;;;;14.45;7.57;;;;;;;2.74;69.71;100993.91;5074780;28;20056;-61
2021/04/08 04:47:40;;;;;;;14.88;7.30;;;;;;;2.76;69.96;100987.06;5074846;28;20053;-61
2021/04/08 04:50:10;;;;;;;12.88;7.30;;;;;;;2.72;69.67;100991.41;5074902;28;20401;-61
2021/04/08 04:52:37;;;;;;;14.30;7.43;;;;;;;2.68;69.76;100990.22;5074106;28;20048;-61
2021/04/08 04:55:10;;;;;;;14.55;7.38;;;;;;;2.63;70.06;100995.66;5093616;28;20048;-61
2021/04/08 04:57:37;;;;;;;14.25;7.53;;;;;;;2.64;69.75;100994.56;5071376;28;20052;-61
2021/04/08 05:00:06;;;;;;;17.65;6.95;;;;;;;2.62;69.80;100992.09;5074519;28;20044;-61
2021/04/08 05:02:33;;;;;;;12.77;6.53;;;;;;;2.61;69.78;100998.66;5074166;28;20060;-61
2021/04/08 05:05:03;;;;;;;17.15;6.18;;;;;;;2.69;69.91;101002.91;5074516;28;20055;-61
2021/04/08 05:07:30;;;;;;;14.50;6.63;;;;;;;2.71;69.91;101002.66;5093276;28;20056;-61
2021/04/08 05:09:57;;;;;;;18.00;7.10;;;;;;;2.78;69.50;101004.16;5094709;28;20066;-60
2021/04/08 05:12:24;;;;;;;12.70;6.03;;;;;;;2.82;69.34;101010.84;5095030;28;20051;-61
2021/04/08 05:14:51;;;;;;;12.95;5.50;;;;;;;2.86;68.64;101011.19;5094555;28;20079;-61
2021/04/08 05:17:18;;;;;;;12.18;4.57;;;;;;;2.91;68.73;101011.25;5094864;28;20047;-59
2021/04/08 05:19:45;;;;;;;14.00;5.88;;;;;;;2.94;68.04;101010.75;5094321;28;20045;-61
2021/04/08 05:22:13;;;;;;;14.35;5.65;;;;;;;3.02;68.03;101015.84;5094990;28;20047;-61
2021/04/08 05:24:40;;;;;;;12.55;5.63;;;;;;;3.10;68.20;101013.75;5090917;28;20167;-61
2021/04/08 05:27:07;;;;;;;12.10;5.05;;;;;;;3.20;67.48;101016.66;5094135;28;20052;-61
2021/04/08 05:29:34;;;;;;;12.20;6.07;;;;;;;3.32;67.39;101013.78;5094255;28;20052;-61
2021/04/08 05:32:01;;;;;;;11.00;4.55;;;;;;;3.41;66.63;101021.38;5094632;28;20056;-61
2021/04/08 05:34:28;;;;;;;10.93;4.47;;;;;;;3.39;66.90;101009.78;5093958;28;20104;-61
2021/04/08 05:36:55;;;;;;;9.68;4.32;;;;;;;3.48;66.64;101020.38;5094458;28;20480;-61
2021/04/08 05:39:23;;;;;;;10.07;4.60;;;;;;;3.54;66.36;101027.63;5094043;28;20048;-61
2021/04/08 05:41:50;;;;;;;11.13;4.80;;;;;;;3.61;66.65;101022.75;5093875;28;20052;-61
2021/04/08 05:44:17;;;;;;;13.77;5.22;;;;;;;3.73;65.71;101028.97;5093440;28;20052;-61
2021/04/08 05:46:45;;;;;;;11.70;4.45;;;;;;;3.82;65.31;101032.13;5093622;28;20048;-59
2021/04/08 05:49:14;;;;;;;8.52;4.22;;;;;;;3.88;65.46;101033.84;5093561;28;20060;-60
2021/04/08 05:51:41;;;;;;;11.25;4.45;;;;;;;3.99;65.41;101043.94;5093947;28;20051;-61
2021/04/08 05:54:08;;;;;;;9.82;3.97;;;;;;;4.02;64.61;101048.94;5087401;28;20048;-61
2021/04/08 05:56:38;;;;;;;11.45;4.43;;;;;;;4.06;64.66;101044.56;5093999;28;20044;-61
2021/04/08 05:59:05;;;;;;;8.55;4.30;;;;;;;4.16;64.72;101048.53;5093148;28;20432;-61
2021/04/08 06:01:33;;;;;;;12.23;4.40;;;;;;;4.33;64.06;101048.47;5093593;28;20052;-61
2021/04/08 06:04:00;;;;;;;14.88;5.13;;;;;;;4.36;63.65;101054.28;5092374;28;20493;-61
2021/04/08 06:06:27;;;;;;;13.52;5.10;;;;;;;4.41;63.59;101054.34;5090767;28;20058;-61
2021/04/08 06:08:54;;;;;;;8.57;4.03;;;;;;;4.41;63.50;101057.13;5093850;28;20056;-61
2021/04/08 06:11:21;;;;;;;10.15;4.47;;;;;;;4.45;63.85;101052.75;5093151;28;20524;-61
2021/04/08 06:13:52;;;;;;;9.10;4.72;;;;;;;4.56;62.88;101061.13;5093163;28;20059;-61
2021/04/08 06:16:19;;;;;;;12.25;4.80;;;;;;;4.64;62.29;101057.88;5093458;28;20378;-61
2021/04/08 06:18:46;;;;;;;9.05;4.40;;;;;;;4.78;62.15;101050.84;5093826;28;20048;-61
2021/04/08 06:21:13;;;;;;;11.30;4.65;;;;;;;4.79;61.85;101060.81;5093056;28;20063;-61
2021/04/08 06:23:40;;;;;;;13.20;4.97;;;;;;;4.87;61.31;101054.81;5089788;28;20044;-61
2021/04/08 06:26:07;;;;;;;10.05;3.53;;;;;;;4.91;61.17;101052.34;5093166;28;20374;-61
2021/04/08 06:28:34;;;;;;;10.57;4.18;;;;;;;4.97;60.79;101061.53;5092767;28;20060;-61
2021/04/08 06:31:02;;;;;;;10.88;4.07;;;;;;;4.98;60.55;101064.03;5093602;28;20044;-61
2021/04/08 06:33:29;;;;;;;7.57;3.90;;;;;;;4.91;60.95;101062.56;5092764;28;20052;-61
2021/04/08 06:35:57;;;;;;;9.52;4.40;;;;;;;4.98;61.12;101055.75;5092870;28;20056;-61
2021/04/08 06:38:24;;;;;;;7.72;4.07;;;;;;;5.03;61.08;101066.00;5092941;28;20055;-61
2021/04/08 06:40:51;;;;;;;12.02;3.78;;;;;;;5.13;60.50;101065.25;5092455;28;20496;-61
2021/04/08 06:43:18;;;;;;;14.35;4.05;;;;;;;5.15;60.46;101069.41;5091114;28;20055;-61
2021/04/08 06:45:49;;;;;;;9.15;4.10;;;;;;;5.32;59.92;101069.28;5092482;28;20063;-61
2021/04/08 06:48:20;;;;;;;9.45;4.07;;;;;;;5.54;59.18;101077.44;5092678;28;20052;-61
2021/04/08 06:50:51;;;;;;;8.35;4.22;;;;;;;5.80;59.22;101061.84;5093031;28;20059;-61
2021/04/08 06:53:19;;;;;;;9.88;3.80;;;;;;;5.97;57.56;101063.63;5087576;28;20059;-59
2021/04/08 06:55:47;;;;;;;10.38;4.00;;;;;;;6.05;57.46;101060.34;5085688;28;20056;-61
2021/04/08 06:58:17;;;;;;;13.85;4.70;;;;;;;6.26;57.02;101067.63;5091806;28;20047;-61
2021/04/08 07:00:43;;;;;;;10.25;4.43;;;;;;;6.42;56.32;101060.19;5080904;28;20052;-62
2021/04/08 07:03:11;;;;;;;12.35;5.10;;;;;;;6.50;55.90;101065.19;5073933;28;20063;-62
2021/04/08 07:05:41;;;;;;;11.77;3.90;;;;;;;6.73;54.95;101074.13;5086241;28;20045;-62
2021/04/08 07:08:08;;;;;;;8.40;3.30;;;;;;;6.81;53.96;101073.59;5089585;28;20052;-61
2021/04/08 07:10:35;;;;;;;11.70;4.97;;;;;;;6.89;54.17;101069.44;5090676;28;20472;-61
2021/04/08 07:13:04;;;;;;;7.25;4.18;;;;;;;7.02;54.44;101074.44;5089258;28;20059;-61
2021/04/08 07:15:31;;;;;;;9.88;3.42;;;;;;;7.06;52.84;101081.09;5081970;28;20048;-61
2021/04/08 07:17:59;;;;;;;8.65;4.45;;;;;;;6.95;53.95;101073.03;5090861;28;20059;-62
2021/04/08 07:20:26;;;;;;;11.93;4.15;;;;;;;6.93;53.31;101083.56;5085442;28;20059;-62
2021/04/08 07:23:10;;;;;;;10.90;4.90;;;;;;;6.98;54.35;101089.13;5091369;28;20489;-62
2021/04/08 07:25:38;;;;;;;9.60;4.93;;;;;;;6.93;53.65;101084.41;5073824;28;20516;-61
2021/04/08 07:28:29;;;;;;;7.20;3.78;;;;;;;6.98;53.13;101084.41;5084692;28;20044;-60
2021/04/08 07:31:25;;;;;;;11.73;4.15;;;;;;;7.08;53.43;101075.28;5083599;28;20040;-60
2021/04/08 07:33:53;;;;;;;7.97;4.57;;;;;;;7.27;52.96;101078.34;5083683;28;20048;-61
2021/04/08 07:36:28;;;;;;;7.25;4.35;;;;;;;7.37;52.61;101080.25;5090093;28;20044;-61
2021/04/08 07:38:56;;;;;;;11.45;4.68;;;;;;;7.42;52.18;101083.03;5090579;28;20067;-62
2021/04/08 07:41:27;;;;;;;10.23;4.63;;;;;;;7.63;52.29;101084.66;5091995;28;20083;-61
2021/04/08 07:43:58;;;;;;;12.93;5.35;;;;;;;7.92;50.83;101084.06;5084571;28;20047;-62
2021/04/08 07:46:38;;;;;;;9.45;4.72;;;;;;;8.41;50.16;101080.56;5078671;28;20059;-62
2021/04/08 07:49:24;;;;;;;12.20;5.82;;;;;;;9.27;46.53;101089.44;5089675;28;20044;-62
2021/04/08 07:51:51;;;;;;;8.80;4.72;;;;;;;9.41;45.95;101083.22;5091423;28;20048;-61
2021/04/08 07:54:20;;;;;;;9.80;5.10;;;;;;;9.45;45.22;101092.63;5102167;28;20045;-62
2021/04/08 07:56:48;;;;;;;9.38;5.00;;;;;;;9.53;45.77;101094.78;5091693;28;20465;-62
2021/04/08 07:59:23;;;;;;;9.88;5.10;;;;;;;9.98;43.92;101087.13;5091876;28;20507;-62
2021/04/08 08:01:59;;;;;;;13.18;4.82;;;;;;;10.31;43.38;101088.16;5091594;28;20048;-62
2021/04/08 08:04:27;;;;;;;9.73;5.30;;;;;;;10.69;42.18;101085.41;5091977;28;20404;-62
2021/04/08 08:06:56;;;;;;;10.50;4.57;;;;;;;11.10;41.42;101083.97;5089163;28;20048;-62
2021/04/08 08:09:27;;;;;;;11.35;4.93;;;;;;;11.97;38.83;101096.47;5091495;28;20059;-62
2021/04/08 08:11:56;;;;;;;7.55;4.78;;;;;;;12.49;38.02;101085.06;5091604;28;20416;-63
2021/04/08 08:14:34;;;;;;;8.85;4.20;;;;;;;12.62;37.03;101081.44;5091789;28;20052;-62
2021/04/08 08:17:06;;;;;;;8.88;4.45;;;;;;;13.10;36.04;101083.69;5091485;28;20060;-62
2021/04/08 08:19:35;;;;;;;8.07;4.22;;;;;;;13.45;33.96;101089.53;5092122;28;20048;-62
2021/04/08 08:22:03;;;;;;;9.20;4.57;;;;;;;14.00;33.32;101085.56;5091924;28;20052;-62
2021/04/08 08:24:32;;;;;;;6.32;4.18;;;;;;;14.31;33.67;101085.53;5088384;28;20056;-62
2021/04/08 08:26:59;;;;;;;9.40;4.30;;;;;;;14.14;32.88;101089.09;5092107;28;20048;-62
2021/04/08 08:29:29;;;;;;;10.38;4.43;;;;;;;13.91;33.41;101085.53;5095188;28;20060;-62
2021/04/08 08:31:58;;;;;;;7.72;4.53;;;;;;;13.95;33.86;101085.72;5092988;28;20522;-62
2021/04/08 08:34:26;;;;;;;9.43;4.30;;;;;;;14.37;32.99;101091.81;5096083;28;20064;-62
2021/04/08 08:36:54;;;;;;;7.50;3.97;;;;;;;14.58;32.31;101097.69;5081436;28;20052;-62
2021/04/08 08:39:24;;;;;;;9.60;5.55;;;;;;;14.88;30.28;101104.31;5087472;28;20048;-62
2021/04/08 08:41:55;;;;;;;10.07;4.25;;;;;;;14.89;30.53;101097.56;5086976;28;20048;-62
2021/04/08 08:44:22;;;;;;;7.95;3.90;;;;;;;15.30;28.78;101087.81;5094145;28;20100;-63
2021/04/08 08:46:58;;;;;;;10.85;4.60;;;;;;;16.34;27.43;101097.16;5086928;28;20051;-63
2021/04/08 08:49:32;;;;;;;9.07;3.88;;;;;;;16.43;26.53;101093.13;5093636;28;20048;-62
2021/04/08 08:52:01;;;;;;;8.48;4.13;;;;;;;16.26;26.38;101098.03;5086518;28;20048;-63
2021/04/08 08:54:30;;;;;;;10.30;5.50;;;;;;;18.36;23.43;101089.41;5080792;28;20056;-63
2021/04/08 08:56:58;;;;;;;11.23;4.60;;;;;;;19.98;21.96;101086.56;5090353;28;20052;-63
2021/04/08 08:59:28;;;;;;;6.85;3.97;;;;;;;20.19;21.07;101077.81;5094357;28;20052;-64
2021/04/08 09:01:55;;;;;;;7.22;3.65;;;;;;;19.26;22.11;101090.22;5093074;28;20056;-63
2021/04/08 09:04:23;;;;;;;9.77;4.47;;;;;;;18.36;22.70;101103.50;5093797;28;20052;-63
2021/04/08 09:06:51;;;;;;;8.52;3.40;;;;;;;19.13;21.04;101100.75;5083719;28;20058;-63
2021/04/08 09:09:21;;;;;;;7.53;3.95;;;;;;;19.19;21.29;101101.28;5093682;28;20056;-63
2021/04/08 09:11:49;;;;;;;7.45;3.88;;;;;;;18.36;22.21;101092.22;5084611;28;20051;-63
2021/04/08 09:14:20;;;;;;;6.53;3.58;;;;;;;17.87;23.18;101095.81;5082479;28;20523;-63
2021/04/08 09:16:49;;;;;;;8.88;3.45;;;;;;;17.67;22.98;101089.03;5094165;28;20078;-63
2021/04/08 09:19:25;;;;;;;4.90;2.75;;;;;;;17.20;23.23;101109.03;5093701;28;20114;-63
2021/04/08 09:21:54;;;;;;;6.20;3.10;;;;;;;16.52;24.06;101101.50;5094101;28;20046;-63
2021/04/08 09:24:23;;;;;;;4.03;2.78;;;;;;;16.90;23.46;101088.56;5084917;28;20670;-63
2021/04/08 09:26:56;;;;;;;8.10;3.50;;;;;;;16.58;24.20;101094.53;5094609;28;20425;-63
2021/04/08 09:29:48;;;;;;;10.95;2.75;;;;;;;16.31;24.82;101093.00;5094064;28;20055;-63
2021/04/08 09:32:33;;;;;;;7.07;3.00;;;;;;;16.48;24.67;101089.28;5092817;28;20052;-63
2021/04/08 09:35:12;;;;;;;5.70;3.22;;;;;;;15.50;25.46;101085.50;5090584;28;20052;-64
2021/04/08 09:38:12;;;;;;;4.63;2.80;;;;;;;14.66;26.01;101096.88;5089228;28;20044;-63
2021/04/08 09:40:59;;;;;;;4.90;2.30;;;;;;;13.67;25.20;101097.13;5088096;28;20439;-63
2021/04/08 09:43:27;;;;;;;5.70;2.28;;;;;;;12.98;24.85;101101.00;5074004;28;20053;-64
2021/04/08 09:46:08;;;;;;;4.15;1.98;;;;;;;12.83;25.54;101090.19;5077893;28;20057;-63
2021/04/08 09:48:46;;;;;;;5.85;2.50;;;;;;;12.47;26.56;101088.16;5093191;28;20053;-62
2021/04/08 09:51:29;;;;;;;5.43;2.90;;;;;;;12.13;27.17;101088.59;5092351;28;20063;-62
2021/04/08 09:53:59;;;;;;;6.82;3.08;;;;;;;11.78;28.47;101088.94;5085520;28;20048;-62
2021/04/08 09:56:47;;;;;;;5.88;2.53;;;;;;;11.64;29.03;101082.50;5090473;28;20493;-62
2021/04/08 09:59:15;;;;;;;4.03;1.67;;;;;;;11.35;26.87;101086.34;5088225;28;20408;-62
2021/04/08 10:01:44;;;;;;;4.82;2.15;;;;;;;11.08;27.31;101087.06;5084473;28;20055;-62
2021/04/08 10:04:17;;;;;;;5.15;2.38;;;;;;;10.83;29.01;101085.47;5092087;28;20055;-62
2021/04/08 10:06:45;;;;;;;10.00;2.83;;;;;;;10.37;30.98;101088.91;5084521;28;20056;-62
2021/04/08 10:09:14;;;;;;;6.70;2.80;;;;;;;10.23;32.54;101090.75;5091454;28;20060;-63
2021/04/08 10:11:41;;;;;;;7.37;3.30;;;;;;;10.14;33.17;101094.19;5084497;28;20071;-63
2021/04/08 10:14:23;;;;;;;6.45;2.97;;;;;;;9.94;33.79;101088.81;5086099;28;20062;-63
2021/04/08 10:17:05;;;;;;;7.22;2.97;;;;;;;9.92;34.30;101100.25;5084679;28;20052;-63
2021/04/08 10:19:36;;;;;;;6.65;2.97;;;;;;;9.92;33.85;101107.78;5072465;28;20056;-63
2021/04/08 10:22:05;;;;;;;4.15;2.90;;;;;;;9.91;33.82;101089.41;5082721;28;20070;-58
2021/04/08 10:24:37;;;;;;;4.22;2.88;;;;;;;9.96;34.11;101092.16;5089258;28;20055;-57
2021/04/08 10:27:19;;;;;;;5.78;3.08;;;;;;;9.91;33.55;101092.19;5102250;28;20059;-57
2021/04/08 10:29:47;;;;;;;5.25;3.03;;;;;;;10.01;33.20;101085.69;5085010;28;20040;-58
2021/04/08 10:32:29;;;;;;;6.50;3.10;;;;;;;9.98;33.12;101087.13;5077845;28;20056;-54
2021/04/08 10:34:56;;;;;;;5.30;2.42;;;;;;;9.70;33.18;101078.50;5078364;28;20056;-59
2021/04/08 10:37:23;;;;;;;8.27;3.25;;;;;;;9.75;33.40;101084.00;5080899;28;20055;-58
2021/04/08 10:39:50;;;;;;;5.00;2.08;;;;;;;9.61;33.71;101085.81;5083154;28;20054;-59
2021/04/08 10:42:20;;;;;;;5.45;2.53;;;;;;;9.65;33.28;101078.53;5087070;28;20396;-59
2021/04/08 10:44:48;;;;;;;5.13;2.88;;;;;;;9.72;32.36;101078.19;5086701;28;20400;-55
2021/04/08 10:47:18;;;;;;;4.75;2.45;;;;;;;9.75;32.62;101075.66;5088554;28;20055;-58
2021/04/08 10:49:47;;;;;;;6.88;2.40;;;;;;;9.97;31.55;101071.53;5090604;28;20047;-58
2021/04/08 10:52:17;;;;;;;6.90;2.80;;;;;;;10.04;31.78;101074.81;5083418;28;20044;-59
2021/04/08 10:54:51;;;;;;;4.75;2.35;;;;;;;10.36;30.79;101067.75;5077615;28;20400;-59
2021/04/08 10:57:21;;;;;;;5.28;2.50;;;;;;;10.40;30.13;101068.81;5073479;28;20497;-59
2021/04/08 10:59:49;;;;;;;5.35;2.90;;;;;;;10.70;30.05;101064.78;5081076;28;20074;-59
2021/04/08 11:02:22;;;;;;;5.47;3.08;;;;;;;11.65;28.36;101059.03;5083228;28;20048;-60
2021/04/08 11:04:49;;;;;;;5.22;3.20;;;;;;;15.57;24.37;101054.94;5086509;28;20048;-60
2021/04/08 11:07:16;;;;;;;5.63;2.80;;;;;;;16.20;23.33;101050.41;5085531;28;20055;-60
2021/04/08 11:09:44;;;;;;;4.50;2.80;;;;;;;16.38;21.41;101055.97;5089009;28;20044;-61
2021/04/08 11:12:22;;;;;;;4.47;2.92;;;;;;;16.86;20.80;101057.47;5081166;28;20063;-60
2021/04/08 11:14:54;;;;;;;7.05;2.75;;;;;;;16.38;21.36;101056.78;5070173;28;20044;-61
2021/04/08 11:17:24;;;;;;;3.17;2.40;;;;;;;15.85;21.90;101057.34;5085368;28;20056;-61
2021/04/08 11:19:52;;;;;;;6.13;2.50;;;;;;;15.36;22.28;101066.03;5081625;28;20044;-60
2021/04/08 11:22:22;;;;;;;5.03;2.85;;;;;;;14.70;22.57;101069.84;5074801;28;20048;-61
2021/04/08 11:24:52;;;;;;;3.63;2.42;;;;;;;13.79;23.82;101076.91;5078844;28;20056;-61
2021/04/08 11:27:27;;;;;;;5.03;2.40;;;;;;;13.32;24.15;101068.88;5075322;28;20068;-61
2021/04/08 11:29:54;;;;;;;5.63;2.88;;;;;;;13.36;23.91;101080.28;5073555;28;20060;-62
2021/04/08 11:32:25;;;;;;;6.03;3.45;;;;;;;14.30;22.78;101078.28;5080821;28;20378;-60
2021/04/08 11:34:54;;;;;;;4.95;3.17;;;;;;;14.12;23.88;101068.16;5081909;28;20079;-60
2021/04/08 11:37:33;;;;;;;6.80;2.72;;;;;;;13.83;24.57;101071.50;5084318;28;20369;-60